Elia Basile

Scout - Inter
17 Feb 2028
Thursday
Process

Personality

Adaptability (9) Ambition (10) Controversy (3) Loyalty (19) Pressure (9) Professionalism (12) Sportsmanship (12) Temperament (5)

Profile

Coaching Style Democratic
License Continental Pro
Determination 10
Man Management 11
Motivating 7
Discipline 6
Job Satisfaction
100%
Fatigue
0%
Role Scout
Wage 95.4K p/w
Contract 14.03.2028

Performance

Behaviour Good
Training Effectiveness
68%
Player Development
45%
Injury Prevention
80%
Tactical Implementation
65%

Recent Events

Contract negotiation started now
Attended a recruitment meeting now
Attended a recruitment meeting now
Contract negotiation started 7d ago
Contract negotiation started 7d ago
Contract negotiation started 7d ago
Contract negotiation started 7d ago
Contract negotiation started 7d ago

Currently Monitoring

81
Player Club Status Ability Confidence Watched Last Observed Latest Vote
Jayden Addai Como Active 129 / 137 58% 1 01.06.2027 -
Yankuba Minteh Brighton Active 145 / 154 40% 3 30.05.2027 -
Arthur Atta Fiorentina Active 147 / 144 40% 5 30.05.2027 -
Facundo Di Biasi Gimnasia La Plata Active 123 / 124 40% 1 30.05.2027 -
Wesley AS Roma Active 157 / 150 40% 9 28.05.2027 -
Víctor Muñoz Liverpool Active 143 / 145 40% 5 28.05.2027 -
Matías Soulé AS Roma Active 168 / 156 40% 5 27.05.2027 -
Mika Godts Paris Saint-Germain Active 138 / 141 40% 4 27.05.2027 -
Jesús Rodríguez Como Active 148 / 147 40% 9 26.05.2027 -
Jofre Torrents Ajax Active 123 / 128 40% 2 26.05.2027 -
Luka Vušković Manchester United Active 139 / 147 40% 2 26.05.2027 -
Tyler Dibling Chelsea Active 149 / 143 40% 2 26.05.2027 -
Assane Diao Lazio Active 139 / 147 40% 12 25.05.2027 -
Ezra Mayers West Ham United Active 122 / 126 40% 1 22.05.2027 -
Santiago Castro AS Roma Active 151 / 149 40% 6 20.05.2027 -
Juan Rodríguez Cagliari Active 129 / 126 40% 1 20.05.2027 -
Yasin Ayari Arsenal Active 144 / 146 40% 4 18.05.2027 -
Valentin Atangana Al-Ahli Active 114 / 135 40% 4 18.05.2027 -
Veljko Milosavljević Aston Villa Active 124 / 139 40% 2 18.05.2027 -
Edoardo Motta Lazio Active 116 / 127 40% 1 15.05.2027 -
Chemsdine Talbi Chelsea Active 150 / 142 40% 5 11.05.2027 -
Jhon Jhon Zenit Active 128 / 136 40% 1 05.05.2027 -
Karim Coulibaly RC Strasbourg Active 116 / 131 40% 2 03.05.2027 -
Juan Giménez Celta Active 126 / 121 40% 1 23.04.2027 -
Ilias Akhomach Villarreal Active 137 / 144 40% 2 21.04.2027 -
Sascha Britschgi Padova Active 125 / 127 40% 2 20.04.2027 -
Ander Astralaga Real Sociedad Active 129 / 131 40% 1 20.04.2027 -
Christ Inao Oulaï Fiorentina Active 134 / 138 55% 3 13.04.2027 -
Josh King Chelsea Active 142 / 144 40% 2 12.04.2027 -
Nicolò Savona Nottingham Forest Active 151 / 142 40% 2 03.04.2027 -
Kenneth Taylor Lazio Active 141 / 151 40% 6 30.03.2027 -
Devyne Rensch AS Roma Active 152 / 139 40% 4 22.03.2027 -
Dean Huijsen Villarreal Active 136 / 147 40% 2 09.03.2027 -
Abubacarr Sedi Kinteh Al-Hilal Active 115 / 130 40% 1 09.03.2027 -
Santiago Fernández Talleres Active 126 / 124 40% 1 08.03.2027 -
Ignacio Perruzzi San Lorenzo Active 126 / 128 40% 1 06.03.2027 -
Antonio Vergara Napoli Active 130 / 138 40% 1 02.03.2027 -
Lucas Da Cunha Como Active 150 / 143 40% 2 28.12.2026 -
Nicolò Zaniolo Udinese Active 157 / 138 40% 3 22.12.2026 -
Billy Gilmour Napoli Active 141 / 149 40% 1 22.12.2026 -
Donyell Malen AS Roma Active 163 / 148 40% 4 21.12.2026 -
Yan Diomandé Real Madrid Active 141 / 156 40% 4 20.12.2026 -
Nuno Tavares Lazio Active 135 / 147 40% 3 17.12.2026 -
Rômulo RB Leipzig Active 152 / 144 40% 3 17.12.2026 -
Gustav Isaksen Lazio Active 140 / 143 40% 2 15.12.2026 -
Samú Al-Nassr Active 135 / 147 40% 2 08.12.2026 -
Senny Mayulu Paris Saint-Germain Active 150 / 148 40% 4 03.12.2026 -
Giacomo Raspadori Atalanta Active 161 / 145 40% 5 02.12.2026 -
Gustavo Puerta Olympiacos Active 138 / 140 40% 2 28.11.2026 -
Raoul Bellanova Atalanta Active 139 / 148 40% 2 12.11.2026 -
Romano Schmid Frosinone Active 148 / 143 40% 2 10.11.2026 -
Orkun Kökçü Besiktas Active 165 / 147 40% 1 07.11.2026 -
Barış Alper Yılmaz Galatasaray Active 147 / 150 40% 2 04.11.2026 -
Dodo Fiorentina Active 159 / 147 40% 1 29.10.2026 -
Rodrigo Gomes Wolverhampton Active 135 / 140 40% 2 22.10.2026 -
Yehor Yarmoliuk Brentford Active 141 / 149 40% 1 22.10.2026 -
Xavi Simons Tottenham Active 147 / 156 40% 2 20.10.2026 -
Moisés Caicedo Chelsea Active 168 / 170 40% 6 19.10.2026 Monitor
Carlos Vicente Birmingham Active 147 / 139 40% 1 19.10.2026 -
Nico González Newcastle United Active 152 / 159 40% 5 16.10.2026 -
Rayan Cherki Manchester City Active 172 / 164 40% 4 16.10.2026 -
Tino Livramento Newcastle United Active 165 / 156 40% 3 15.10.2026 -
Enzo Fernández Manchester City Active 163 / 167 40% 1 15.10.2026 -
Adrien Truffert Bournemouth Active 155 / 148 40% 1 13.10.2026 -
Morgan Rogers Chelsea Active 152 / 160 40% 2 08.10.2026 -
Nico O'Reilly Manchester City Active 139 / 155 40% 1 08.10.2026 -
Kai Havertz Arsenal Active 152 / 159 40% 3 07.10.2026 -
Dominik Szoboszlai Liverpool Active 155 / 166 40% 2 07.10.2026 -
Hugo Ekitiké Liverpool Active 150 / 160 40% 3 05.10.2026 -
Sandro Tonali Tottenham Active 173 / 171 40% 1 05.10.2026 -
Dango Ouattara Brentford Active 153 / 143 40% 2 04.10.2026 -
Gonzalo Fulham Active 149 / 146 40% 1 27.09.2026 -
Bradley Barcola Liverpool Active 163 / 163 40% 1 27.09.2026 -
Adam Wharton Crystal Palace Active 145 / 151 40% 2 21.09.2026 -
Alexis Mac Allister Liverpool Active 153 / 160 40% 1 17.09.2026 -
Gabriel Martinelli Brighton Lost 164 / 161 40% 1 17.09.2026 -
Mason Mount Manchester United Active 147 / 149 40% 1 15.09.2026 -
Elliot Anderson Manchester City Active 152 / 152 40% 1 14.09.2026 -
Ryan Gravenberch Liverpool Active 169 / 159 40% 1 13.09.2026 -
Amad Manchester United Active 160 / 153 40% 1 12.09.2026 -
Jeremie Frimpong Liverpool Active 163 / 157 40% 1 07.09.2026 -